sensor_id;sensor_type;location;lat;lon;timestamp;P1;durP1;ratioP1;P2;durP2;ratioP2
59093;SDS011;44880;52.814;18.270;2022-09-20T00:02:13;8.80;;;3.20;;
59093;SDS011;44880;52.814;18.270;2022-09-20T00:04:48;8.10;;;3.10;;
59093;SDS011;44880;52.814;18.270;2022-09-20T00:07:20;8.50;;;3.40;;
59093;SDS011;44880;52.814;18.270;2022-09-20T00:09:52;9.20;;;3.20;;
59093;SDS011;44880;52.814;18.270;2022-09-20T00:12:24;7.80;;;3.00;;
59093;SDS011;44880;52.814;18.270;2022-09-20T00:14:56;7.90;;;3.50;;
59093;SDS011;44880;52.814;18.270;2022-09-20T00:17:28;7.50;;;2.80;;
59093;SDS011;44880;52.814;18.270;2022-09-20T00:20:00;8.40;;;2.90;;
59093;SDS011;44880;52.814;18.270;2022-09-20T00:22:31;7.60;;;3.30;;
59093;SDS011;44880;52.814;18.270;2022-09-20T00:25:03;9.80;;;2.90;;
59093;SDS011;44880;52.814;18.270;2022-09-20T00:27:36;7.50;;;2.80;;
59093;SDS011;44880;52.814;18.270;2022-09-20T00:30:08;7.10;;;2.50;;
59093;SDS011;44880;52.814;18.270;2022-09-20T00:32:40;7.10;;;2.50;;
59093;SDS011;44880;52.814;18.270;2022-09-20T00:35:12;7.90;;;2.80;;
59093;SDS011;44880;52.814;18.270;2022-09-20T00:37:43;7.80;;;2.70;;
59093;SDS011;44880;52.814;18.270;2022-09-20T00:40:15;7.50;;;2.70;;
59093;SDS011;44880;52.814;18.270;2022-09-20T00:42:49;8.70;;;2.80;;
59093;SDS011;44880;52.814;18.270;2022-09-20T00:45:21;8.50;;;2.90;;
59093;SDS011;44880;52.814;18.270;2022-09-20T00:47:54;8.10;;;2.50;;
59093;SDS011;44880;52.814;18.270;2022-09-20T00:50:30;7.20;;;2.70;;
59093;SDS011;44880;52.814;18.270;2022-09-20T00:53:05;6.50;;;2.30;;
59093;SDS011;44880;52.814;18.270;2022-09-20T00:55:39;8.60;;;3.00;;
59093;SDS011;44880;52.814;18.270;2022-09-20T00:58:12;7.20;;;2.60;;
59093;SDS011;44880;52.814;18.270;2022-09-20T01:03:14;7.70;;;2.50;;
59093;SDS011;44880;52.814;18.270;2022-09-20T01:05:47;6.50;;;2.50;;
59093;SDS011;44880;52.814;18.270;2022-09-20T01:08:18;7.00;;;2.50;;
59093;SDS011;44880;52.814;18.270;2022-09-20T01:10:51;7.70;;;3.00;;
59093;SDS011;44880;52.814;18.270;2022-09-20T01:13:24;7.30;;;2.50;;
59093;SDS011;44880;52.814;18.270;2022-09-20T01:15:55;7.60;;;2.90;;
59093;SDS011;44880;52.814;18.270;2022-09-20T01:18:28;9.40;;;2.80;;
59093;SDS011;44880;52.814;18.270;2022-09-20T01:21:00;8.30;;;3.00;;
59093;SDS011;44880;52.814;18.270;2022-09-20T01:23:36;8.00;;;2.70;;
59093;SDS011;44880;52.814;18.270;2022-09-20T01:26:24;8.60;;;3.80;;
59093;SDS011;44880;52.814;18.270;2022-09-20T01:29:04;8.90;;;3.50;;
59093;SDS011;44880;52.814;18.270;2022-09-20T01:31:42;9.20;;;4.20;;
59093;SDS011;44880;52.814;18.270;2022-09-20T01:34:17;8.10;;;3.40;;
59093;SDS011;44880;52.814;18.270;2022-09-20T01:36:52;7.80;;;3.40;;
59093;SDS011;44880;52.814;18.270;2022-09-20T01:39:29;9.90;;;3.90;;
59093;SDS011;44880;52.814;18.270;2022-09-20T01:42:07;8.00;;;3.20;;
59093;SDS011;44880;52.814;18.270;2022-09-20T01:44:43;9.40;;;3.40;;
59093;SDS011;44880;52.814;18.270;2022-09-20T01:47:23;8.70;;;3.20;;
59093;SDS011;44880;52.814;18.270;2022-09-20T01:49:58;8.80;;;3.50;;
59093;SDS011;44880;52.814;18.270;2022-09-20T01:52:39;9.70;;;3.60;;
59093;SDS011;44880;52.814;18.270;2022-09-20T01:55:39;8.80;;;3.90;;
59093;SDS011;44880;52.814;18.270;2022-09-20T02:01:39;8.80;;;3.40;;
59093;SDS011;44880;52.814;18.270;2022-09-20T02:04:31;8.30;;;3.80;;
59093;SDS011;44880;52.814;18.270;2022-09-20T02:10:17;9.60;;;3.50;;
59093;SDS011;44880;52.814;18.270;2022-09-20T02:13:10;9.20;;;4.10;;
59093;SDS011;44880;52.814;18.270;2022-09-20T02:15:55;9.10;;;3.90;;
59093;SDS011;44880;52.814;18.270;2022-09-20T02:18:39;9.80;;;3.80;;
59093;SDS011;44880;52.814;18.270;2022-09-20T02:21:22;9.90;;;3.80;;
59093;SDS011;44880;52.814;18.270;2022-09-20T02:24:06;8.70;;;3.80;;
59093;SDS011;44880;52.814;18.270;2022-09-20T02:26:48;9.30;;;3.60;;
59093;SDS011;44880;52.814;18.270;2022-09-20T02:29:30;10.80;;;3.80;;
59093;SDS011;44880;52.814;18.270;2022-09-20T02:32:09;9.40;;;3.40;;
59093;SDS011;44880;52.814;18.270;2022-09-20T02:34:53;8.70;;;4.00;;
59093;SDS011;44880;52.814;18.270;2022-09-20T02:40:30;9.40;;;3.80;;
59093;SDS011;44880;52.814;18.270;2022-09-20T02:43:13;9.30;;;4.50;;
59093;SDS011;44880;52.814;18.270;2022-09-20T02:45:51;8.70;;;3.80;;
59093;SDS011;44880;52.814;18.270;2022-09-20T02:48:28;10.40;;;4.20;;
59093;SDS011;44880;52.814;18.270;2022-09-20T02:51:07;9.60;;;4.50;;
59093;SDS011;44880;52.814;18.270;2022-09-20T02:53:46;10.40;;;5.00;;
59093;SDS011;44880;52.814;18.270;2022-09-20T02:56:26;8.80;;;4.00;;
59093;SDS011;44880;52.814;18.270;2022-09-20T02:59:04;10.40;;;4.60;;
59093;SDS011;44880;52.814;18.270;2022-09-20T03:01:42;10.90;;;5.00;;
59093;SDS011;44880;52.814;18.270;2022-09-20T03:04:22;13.00;;;5.00;;
59093;SDS011;44880;52.814;18.270;2022-09-20T03:07:00;8.60;;;4.40;;
59093;SDS011;44880;52.814;18.270;2022-09-20T03:09:37;10.30;;;4.80;;
59093;SDS011;44880;52.814;18.270;2022-09-20T03:12:16;9.90;;;4.20;;
59093;SDS011;44880;52.814;18.270;2022-09-20T03:14:56;9.20;;;4.60;;
59093;SDS011;44880;52.814;18.270;2022-09-20T03:17:37;10.10;;;4.80;;
59093;SDS011;44880;52.814;18.270;2022-09-20T03:20:19;12.50;;;5.90;;
59093;SDS011;44880;52.814;18.270;2022-09-20T03:22:58;11.50;;;6.40;;
59093;SDS011;44880;52.814;18.270;2022-09-20T03:25:37;9.00;;;5.20;;
59093;SDS011;44880;52.814;18.270;2022-09-20T03:28:28;10.50;;;5.00;;
59093;SDS011;44880;52.814;18.270;2022-09-20T03:31:10;9.00;;;4.60;;
59093;SDS011;44880;52.814;18.270;2022-09-20T03:33:51;11.00;;;4.40;;
59093;SDS011;44880;52.814;18.270;2022-09-20T03:39:34;13.30;;;5.10;;
59093;SDS011;44880;52.814;18.270;2022-09-20T03:42:19;10.70;;;5.50;;
59093;SDS011;44880;52.814;18.270;2022-09-20T03:48:09;11.20;;;5.40;;
59093;SDS011;44880;52.814;18.270;2022-09-20T03:51:03;10.90;;;5.20;;
59093;SDS011;44880;52.814;18.270;2022-09-20T03:53:57;10.20;;;4.90;;
59093;SDS011;44880;52.814;18.270;2022-09-20T04:03:01;11.40;;;6.60;;
59093;SDS011;44880;52.814;18.270;2022-09-20T04:05:43;10.10;;;5.80;;
59093;SDS011;44880;52.814;18.270;2022-09-20T04:08:23;11.10;;;5.50;;
59093;SDS011;44880;52.814;18.270;2022-09-20T04:11:02;10.70;;;5.80;;
59093;SDS011;44880;52.814;18.270;2022-09-20T04:13:36;10.80;;;5.50;;
59093;SDS011;44880;52.814;18.270;2022-09-20T04:16:16;10.20;;;5.70;;
59093;SDS011;44880;52.814;18.270;2022-09-20T04:18:55;11.10;;;6.00;;
59093;SDS011;44880;52.814;18.270;2022-09-20T04:21:30;11.50;;;5.30;;
59093;SDS011;44880;52.814;18.270;2022-09-20T04:24:04;10.90;;;5.60;;
59093;SDS011;44880;52.814;18.270;2022-09-20T04:26:42;10.40;;;5.70;;
59093;SDS011;44880;52.814;18.270;2022-09-20T04:29:24;11.20;;;5.90;;
59093;SDS011;44880;52.814;18.270;2022-09-20T04:32:10;10.50;;;5.50;;
59093;SDS011;44880;52.814;18.270;2022-09-20T04:34:49;11.80;;;6.00;;
59093;SDS011;44880;52.814;18.270;2022-09-20T04:37:53;11.70;;;5.90;;
59093;SDS011;44880;52.814;18.270;2022-09-20T04:40:39;13.50;;;6.50;;
59093;SDS011;44880;52.814;18.270;2022-09-20T04:43:36;17.70;;;9.10;;
59093;SDS011;44880;52.814;18.270;2022-09-20T04:46:36;16.10;;;9.40;;
59093;SDS011;44880;52.814;18.270;2022-09-20T04:52:43;20.30;;;11.20;;
59093;SDS011;44880;52.814;18.270;2022-09-20T04:55:54;15.60;;;8.30;;
59093;SDS011;44880;52.814;18.270;2022-09-20T05:01:33;11.70;;;6.80;;
59093;SDS011;44880;52.814;18.270;2022-09-20T05:07:54;14.70;;;7.90;;
59093;SDS011;44880;52.814;18.270;2022-09-20T05:11:02;15.30;;;9.60;;
59093;SDS011;44880;52.814;18.270;2022-09-20T05:13:54;19.30;;;10.30;;
59093;SDS011;44880;52.814;18.270;2022-09-20T05:17:03;24.50;;;12.60;;
59093;SDS011;44880;52.814;18.270;2022-09-20T05:19:48;22.00;;;12.60;;
59093;SDS011;44880;52.814;18.270;2022-09-20T05:25:40;18.80;;;10.40;;
59093;SDS011;44880;52.814;18.270;2022-09-20T05:28:18;15.90;;;9.80;;
59093;SDS011;44880;52.814;18.270;2022-09-20T05:30:53;19.00;;;10.80;;
59093;SDS011;44880;52.814;18.270;2022-09-20T05:33:27;19.90;;;11.60;;
59093;SDS011;44880;52.814;18.270;2022-09-20T05:36:03;20.20;;;11.20;;
59093;SDS011;44880;52.814;18.270;2022-09-20T05:38:39;19.50;;;11.20;;
59093;SDS011;44880;52.814;18.270;2022-09-20T05:41:33;21.50;;;11.70;;
59093;SDS011;44880;52.814;18.270;2022-09-20T05:44:10;18.90;;;11.80;;
59093;SDS011;44880;52.814;18.270;2022-09-20T05:46:52;15.70;;;9.80;;
59093;SDS011;44880;52.814;18.270;2022-09-20T05:49:34;18.80;;;10.20;;
59093;SDS011;44880;52.814;18.270;2022-09-20T05:52:13;18.90;;;10.90;;
59093;SDS011;44880;52.814;18.270;2022-09-20T05:57:55;19.40;;;10.60;;
59093;SDS011;44880;52.814;18.270;2022-09-20T06:00:33;17.00;;;8.40;;
59093;SDS011;44880;52.814;18.270;2022-09-20T06:03:11;15.80;;;8.50;;
59093;SDS011;44880;52.814;18.270;2022-09-20T06:05:48;15.10;;;9.20;;
59093;SDS011;44880;52.814;18.270;2022-09-20T06:08:27;18.00;;;10.40;;
59093;SDS011;44880;52.814;18.270;2022-09-20T06:11:25;17.30;;;9.80;;
59093;SDS011;44880;52.814;18.270;2022-09-20T06:14:15;17.30;;;10.60;;
59093;SDS011;44880;52.814;18.270;2022-09-20T06:16:56;16.90;;;8.60;;
59093;SDS011;44880;52.814;18.270;2022-09-20T06:19:33;13.90;;;8.20;;
59093;SDS011;44880;52.814;18.270;2022-09-20T06:22:11;12.40;;;7.70;;
59093;SDS011;44880;52.814;18.270;2022-09-20T06:24:46;13.50;;;7.40;;
59093;SDS011;44880;52.814;18.270;2022-09-20T06:27:22;11.50;;;6.40;;
59093;SDS011;44880;52.814;18.270;2022-09-20T06:29:58;12.90;;;7.70;;
59093;SDS011;44880;52.814;18.270;2022-09-20T06:32:34;15.40;;;7.90;;
59093;SDS011;44880;52.814;18.270;2022-09-20T06:35:13;11.40;;;7.10;;
59093;SDS011;44880;52.814;18.270;2022-09-20T06:37:46;10.90;;;6.10;;
59093;SDS011;44880;52.814;18.270;2022-09-20T06:40:39;10.60;;;5.60;;
59093;SDS011;44880;52.814;18.270;2022-09-20T06:43:30;11.90;;;6.40;;
59093;SDS011;44880;52.814;18.270;2022-09-20T06:46:02;11.00;;;6.10;;
59093;SDS011;44880;52.814;18.270;2022-09-20T06:48:34;11.60;;;6.10;;
59093;SDS011;44880;52.814;18.270;2022-09-20T06:51:07;9.30;;;5.10;;
59093;SDS011;44880;52.814;18.270;2022-09-20T06:53:39;9.10;;;4.70;;
59093;SDS011;44880;52.814;18.270;2022-09-20T06:58:42;10.00;;;4.70;;
59093;SDS011;44880;52.814;18.270;2022-09-20T07:01:14;9.40;;;4.90;;
59093;SDS011;44880;52.814;18.270;2022-09-20T07:03:46;8.40;;;4.30;;
59093;SDS011;44880;52.814;18.270;2022-09-20T07:06:17;10.20;;;4.30;;
59093;SDS011;44880;52.814;18.270;2022-09-20T07:08:48;8.30;;;3.70;;
59093;SDS011;44880;52.814;18.270;2022-09-20T07:11:37;8.60;;;4.40;;
59093;SDS011;44880;52.814;18.270;2022-09-20T07:14:08;8.30;;;4.30;;
59093;SDS011;44880;52.814;18.270;2022-09-20T07:16:40;9.00;;;4.10;;
59093;SDS011;44880;52.814;18.270;2022-09-20T07:19:33;9.60;;;4.20;;
59093;SDS011;44880;52.814;18.270;2022-09-20T07:22:07;8.50;;;4.20;;
59093;SDS011;44880;52.814;18.270;2022-09-20T07:24:47;8.40;;;3.80;;
59093;SDS011;44880;52.814;18.270;2022-09-20T07:27:22;10.30;;;4.40;;
59093;SDS011;44880;52.814;18.270;2022-09-20T07:29:53;8.90;;;4.30;;
59093;SDS011;44880;52.814;18.270;2022-09-20T07:32:25;8.60;;;4.20;;
59093;SDS011;44880;52.814;18.270;2022-09-20T07:35:03;9.10;;;4.50;;
59093;SDS011;44880;52.814;18.270;2022-09-20T07:37:35;10.10;;;4.10;;
59093;SDS011;44880;52.814;18.270;2022-09-20T07:40:09;9.20;;;4.30;;
59093;SDS011;44880;52.814;18.270;2022-09-20T07:42:51;8.90;;;4.50;;
59093;SDS011;44880;52.814;18.270;2022-09-20T07:45:23;9.40;;;4.30;;
59093;SDS011;44880;52.814;18.270;2022-09-20T07:47:55;8.40;;;4.60;;
59093;SDS011;44880;52.814;18.270;2022-09-20T07:50:27;9.40;;;5.10;;
59093;SDS011;44880;52.814;18.270;2022-09-20T07:53:06;7.80;;;4.10;;
59093;SDS011;44880;52.814;18.270;2022-09-20T07:55:37;9.50;;;4.30;;
59093;SDS011;44880;52.814;18.270;2022-09-20T07:58:09;9.70;;;3.90;;
59093;SDS011;44880;52.814;18.270;2022-09-20T08:00:53;8.90;;;4.20;;
59093;SDS011;44880;52.814;18.270;2022-09-20T08:03:27;8.80;;;4.20;;
59093;SDS011;44880;52.814;18.270;2022-09-20T08:06:00;8.70;;;4.20;;
59093;SDS011;44880;52.814;18.270;2022-09-20T08:08:39;8.60;;;4.40;;
59093;SDS011;44880;52.814;18.270;2022-09-20T08:11:16;8.50;;;3.90;;
59093;SDS011;44880;52.814;18.270;2022-09-20T08:13:49;8.60;;;4.40;;
59093;SDS011;44880;52.814;18.270;2022-09-20T08:16:22;9.00;;;4.40;;
59093;SDS011;44880;52.814;18.270;2022-09-20T08:18:58;9.20;;;4.60;;
59093;SDS011;44880;52.814;18.270;2022-09-20T08:21:31;9.20;;;4.20;;
59093;SDS011;44880;52.814;18.270;2022-09-20T08:24:05;7.50;;;3.40;;
59093;SDS011;44880;52.814;18.270;2022-09-20T08:26:40;9.20;;;3.40;;
59093;SDS011;44880;52.814;18.270;2022-09-20T08:29:12;8.50;;;4.10;;
59093;SDS011;44880;52.814;18.270;2022-09-20T08:31:44;8.20;;;3.90;;
59093;SDS011;44880;52.814;18.270;2022-09-20T08:34:15;9.30;;;4.50;;
59093;SDS011;44880;52.814;18.270;2022-09-20T08:36:47;8.60;;;3.90;;
59093;SDS011;44880;52.814;18.270;2022-09-20T08:39:23;8.40;;;4.00;;
59093;SDS011;44880;52.814;18.270;2022-09-20T08:41:56;8.90;;;3.90;;
59093;SDS011;44880;52.814;18.270;2022-09-20T08:44:30;10.20;;;5.50;;
59093;SDS011;44880;52.814;18.270;2022-09-20T08:47:13;8.80;;;3.80;;
59093;SDS011;44880;52.814;18.270;2022-09-20T08:49:48;8.30;;;3.90;;
59093;SDS011;44880;52.814;18.270;2022-09-20T08:52:24;7.00;;;3.00;;
59093;SDS011;44880;52.814;18.270;2022-09-20T08:55:12;7.60;;;3.40;;
59093;SDS011;44880;52.814;18.270;2022-09-20T08:57:44;7.80;;;2.90;;
59093;SDS011;44880;52.814;18.270;2022-09-20T09:00:18;10.30;;;6.10;;
59093;SDS011;44880;52.814;18.270;2022-09-20T09:03:03;7.20;;;3.10;;
59093;SDS011;44880;52.814;18.270;2022-09-20T09:05:36;6.90;;;2.50;;
59093;SDS011;44880;52.814;18.270;2022-09-20T09:08:10;5.70;;;1.60;;
59093;SDS011;44880;52.814;18.270;2022-09-20T09:10:49;6.00;;;1.50;;
59093;SDS011;44880;52.814;18.270;2022-09-20T09:13:25;5.50;;;1.70;;
59093;SDS011;44880;52.814;18.270;2022-09-20T09:16:00;6.10;;;1.70;;
59093;SDS011;44880;52.814;18.270;2022-09-20T09:18:49;4.20;;;1.20;;
59093;SDS011;44880;52.814;18.270;2022-09-20T09:21:23;4.60;;;1.40;;
59093;SDS011;44880;52.814;18.270;2022-09-20T09:24:01;5.50;;;1.40;;
59093;SDS011;44880;52.814;18.270;2022-09-20T09:26:42;4.70;;;1.20;;
59093;SDS011;44880;52.814;18.270;2022-09-20T09:29:16;5.70;;;1.30;;
59093;SDS011;44880;52.814;18.270;2022-09-20T09:31:49;5.30;;;1.40;;
59093;SDS011;44880;52.814;18.270;2022-09-20T09:34:29;4.10;;;1.20;;
59093;SDS011;44880;52.814;18.270;2022-09-20T09:37:08;5.60;;;1.20;;
59093;SDS011;44880;52.814;18.270;2022-09-20T09:40:11;5.10;;;1.30;;
59093;SDS011;44880;52.814;18.270;2022-09-20T09:42:52;5.10;;;1.60;;
59093;SDS011;44880;52.814;18.270;2022-09-20T09:45:28;3.90;;;1.10;;
59093;SDS011;44880;52.814;18.270;2022-09-20T09:48:15;3.70;;;1.20;;
59093;SDS011;44880;52.814;18.270;2022-09-20T09:50:48;4.60;;;1.40;;
59093;SDS011;44880;52.814;18.270;2022-09-20T09:53:25;5.00;;;1.30;;
59093;SDS011;44880;52.814;18.270;2022-09-20T09:59:08;4.50;;;1.10;;
59093;SDS011;44880;52.814;18.270;2022-09-20T10:02:12;3.10;;;1.00;;
59093;SDS011;44880;52.814;18.270;2022-09-20T10:04:59;4.90;;;1.10;;
59093;SDS011;44880;52.814;18.270;2022-09-20T10:07:34;4.00;;;1.10;;
59093;SDS011;44880;52.814;18.270;2022-09-20T10:13:06;3.80;;;0.90;;
59093;SDS011;44880;52.814;18.270;2022-09-20T10:15:43;4.40;;;1.20;;
59093;SDS011;44880;52.814;18.270;2022-09-20T10:18:44;5.10;;;1.10;;
59093;SDS011;44880;52.814;18.270;2022-09-20T10:21:22;2.10;;;0.80;;
59093;SDS011;44880;52.814;18.270;2022-09-20T10:26:59;3.20;;;1.00;;
59093;SDS011;44880;52.814;18.270;2022-09-20T10:29:52;3.20;;;1.00;;
59093;SDS011;44880;52.814;18.270;2022-09-20T10:32:41;6.60;;;0.90;;
59093;SDS011;44880;52.814;18.270;2022-09-20T10:35:34;4.00;;;0.90;;
59093;SDS011;44880;52.814;18.270;2022-09-20T10:38:15;3.80;;;0.90;;
59093;SDS011;44880;52.814;18.270;2022-09-20T10:47:00;3.10;;;0.70;;
59093;SDS011;44880;52.814;18.270;2022-09-20T10:49:38;2.60;;;0.70;;
59093;SDS011;44880;52.814;18.270;2022-09-20T10:52:29;4.40;;;0.90;;
59093;SDS011;44880;52.814;18.270;2022-09-20T10:55:28;3.10;;;0.70;;
59093;SDS011;44880;52.814;18.270;2022-09-20T10:58:15;7.80;;;1.70;;
59093;SDS011;44880;52.814;18.270;2022-09-20T11:01:13;3.00;;;0.60;;
59093;SDS011;44880;52.814;18.270;2022-09-20T11:04:05;1.70;;;0.50;;
59093;SDS011;44880;52.814;18.270;2022-09-20T11:07:09;1.40;;;0.60;;
59093;SDS011;44880;52.814;18.270;2022-09-20T11:09:43;1.90;;;0.60;;
59093;SDS011;44880;52.814;18.270;2022-09-20T11:15:07;1.40;;;0.60;;
59093;SDS011;44880;52.814;18.270;2022-09-20T11:17:47;2.10;;;0.70;;
59093;SDS011;44880;52.814;18.270;2022-09-20T11:20:29;3.80;;;1.00;;
59093;SDS011;44880;52.814;18.270;2022-09-20T11:23:05;5.00;;;1.20;;
59093;SDS011;44880;52.814;18.270;2022-09-20T11:25:47;5.00;;;0.80;;
59093;SDS011;44880;52.814;18.270;2022-09-20T11:28:26;1.80;;;0.60;;
59093;SDS011;44880;52.814;18.270;2022-09-20T11:31:02;3.50;;;0.90;;
59093;SDS011;44880;52.814;18.270;2022-09-20T11:33:39;3.30;;;0.90;;
59093;SDS011;44880;52.814;18.270;2022-09-20T11:36:14;2.30;;;0.70;;
59093;SDS011;44880;52.814;18.270;2022-09-20T11:38:48;3.90;;;0.90;;
59093;SDS011;44880;52.814;18.270;2022-09-20T11:41:23;3.60;;;1.00;;
59093;SDS011;44880;52.814;18.270;2022-09-20T11:44:10;5.00;;;1.00;;
59093;SDS011;44880;52.814;18.270;2022-09-20T11:46:44;3.70;;;1.10;;
59093;SDS011;44880;52.814;18.270;2022-09-20T11:49:25;5.10;;;1.60;;
59093;SDS011;44880;52.814;18.270;2022-09-20T11:55:18;4.30;;;0.90;;
59093;SDS011;44880;52.814;18.270;2022-09-20T11:58:02;4.00;;;0.90;;
59093;SDS011;44880;52.814;18.270;2022-09-20T12:00:37;2.40;;;0.70;;
59093;SDS011;44880;52.814;18.270;2022-09-20T12:03:24;3.80;;;1.00;;
59093;SDS011;44880;52.814;18.270;2022-09-20T12:05:59;1.70;;;0.60;;
59093;SDS011;44880;52.814;18.270;2022-09-20T12:08:36;1.20;;;0.50;;
59093;SDS011;44880;52.814;18.270;2022-09-20T12:11:14;2.30;;;0.60;;
59093;SDS011;44880;52.814;18.270;2022-09-20T12:14:00;2.20;;;0.70;;
59093;SDS011;44880;52.814;18.270;2022-09-20T12:16:36;1.80;;;0.60;;
59093;SDS011;44880;52.814;18.270;2022-09-20T12:19:10;0.90;;;0.40;;
59093;SDS011;44880;52.814;18.270;2022-09-20T12:24:46;2.50;;;0.60;;
59093;SDS011;44880;52.814;18.270;2022-09-20T12:28:15;2.60;;;0.60;;
59093;SDS011;44880;52.814;18.270;2022-09-20T12:30:46;1.60;;;0.60;;
59093;SDS011;44880;52.814;18.270;2022-09-20T12:33:57;2.40;;;0.50;;
59093;SDS011;44880;52.814;18.270;2022-09-20T12:36:29;1.40;;;0.50;;
59093;SDS011;44880;52.814;18.270;2022-09-20T12:39:05;1.20;;;0.40;;
59093;SDS011;44880;52.814;18.270;2022-09-20T12:41:49;2.30;;;0.60;;
59093;SDS011;44880;52.814;18.270;2022-09-20T12:44:27;2.10;;;0.70;;
59093;SDS011;44880;52.814;18.270;2022-09-20T12:47:27;1.80;;;0.70;;
59093;SDS011;44880;52.814;18.270;2022-09-20T12:49:59;2.00;;;0.60;;
59093;SDS011;44880;52.814;18.270;2022-09-20T12:52:50;3.20;;;0.70;;
59093;SDS011;44880;52.814;18.270;2022-09-20T12:55:39;1.60;;;0.60;;
59093;SDS011;44880;52.814;18.270;2022-09-20T12:58:29;2.70;;;0.70;;
59093;SDS011;44880;52.814;18.270;2022-09-20T13:09:52;2.90;;;0.70;;
59093;SDS011;44880;52.814;18.270;2022-09-20T13:12:30;4.10;;;1.00;;
59093;SDS011;44880;52.814;18.270;2022-09-20T13:15:17;6.60;;;1.60;;
59093;SDS011;44880;52.814;18.270;2022-09-20T13:17:49;3.70;;;0.80;;
59093;SDS011;44880;52.814;18.270;2022-09-20T13:20:24;3.40;;;0.80;;
59093;SDS011;44880;52.814;18.270;2022-09-20T13:22:58;2.20;;;0.70;;
59093;SDS011;44880;52.814;18.270;2022-09-20T13:25:34;3.30;;;0.60;;
59093;SDS011;44880;52.814;18.270;2022-09-20T13:28:16;3.00;;;0.70;;
59093;SDS011;44880;52.814;18.270;2022-09-20T13:31:19;2.00;;;0.60;;
59093;SDS011;44880;52.814;18.270;2022-09-20T13:34:17;3.00;;;0.70;;
59093;SDS011;44880;52.814;18.270;2022-09-20T13:36:56;3.60;;;0.90;;
59093;SDS011;44880;52.814;18.270;2022-09-20T13:39:39;3.70;;;1.00;;
59093;SDS011;44880;52.814;18.270;2022-09-20T13:42:22;3.30;;;0.80;;
59093;SDS011;44880;52.814;18.270;2022-09-20T13:45:04;5.70;;;1.30;;
59093;SDS011;44880;52.814;18.270;2022-09-20T13:47:42;3.70;;;1.00;;
59093;SDS011;44880;52.814;18.270;2022-09-20T13:50:33;2.40;;;0.70;;
59093;SDS011;44880;52.814;18.270;2022-09-20T13:56:18;3.60;;;0.90;;
59093;SDS011;44880;52.814;18.270;2022-09-20T14:01:49;4.00;;;1.00;;
59093;SDS011;44880;52.814;18.270;2022-09-20T14:04:24;2.00;;;0.70;;
59093;SDS011;44880;52.814;18.270;2022-09-20T14:07:04;2.30;;;0.70;;
59093;SDS011;44880;52.814;18.270;2022-09-20T14:12:21;2.20;;;0.70;;
59093;SDS011;44880;52.814;18.270;2022-09-20T14:17:44;3.40;;;0.90;;
59093;SDS011;44880;52.814;18.270;2022-09-20T14:27:18;8.00;;;2.70;;
59093;SDS011;44880;52.814;18.270;2022-09-20T14:29:52;7.00;;;2.40;;
59093;SDS011;44880;52.814;18.270;2022-09-20T14:35:30;2.50;;;0.80;;
59093;SDS011;44880;52.814;18.270;2022-09-20T14:38:13;2.10;;;0.80;;
59093;SDS011;44880;52.814;18.270;2022-09-20T14:41:07;2.60;;;0.90;;
59093;SDS011;44880;52.814;18.270;2022-09-20T14:43:39;12.10;;;4.80;;
59093;SDS011;44880;52.814;18.270;2022-09-20T14:55:29;7.50;;;2.70;;
59093;SDS011;44880;52.814;18.270;2022-09-20T14:58:06;9.40;;;3.70;;
59093;SDS011;44880;52.814;18.270;2022-09-20T15:03:42;8.20;;;2.10;;
59093;SDS011;44880;52.814;18.270;2022-09-20T15:06:19;8.00;;;2.10;;
59093;SDS011;44880;52.814;18.270;2022-09-20T15:12:04;3.40;;;1.00;;
59093;SDS011;44880;52.814;18.270;2022-09-20T15:14:56;8.10;;;2.30;;
59093;SDS011;44880;52.814;18.270;2022-09-20T15:17:28;13.30;;;4.20;;
59093;SDS011;44880;52.814;18.270;2022-09-20T15:20:03;9.00;;;3.70;;
59093;SDS011;44880;52.814;18.270;2022-09-20T15:22:39;11.50;;;4.20;;
59093;SDS011;44880;52.814;18.270;2022-09-20T15:25:30;11.30;;;4.00;;
59093;SDS011;44880;52.814;18.270;2022-09-20T15:28:11;8.10;;;3.20;;
59093;SDS011;44880;52.814;18.270;2022-09-20T15:30:46;12.80;;;4.60;;
59093;SDS011;44880;52.814;18.270;2022-09-20T15:33:19;6.70;;;1.90;;
59093;SDS011;44880;52.814;18.270;2022-09-20T15:35:59;9.00;;;1.90;;
59093;SDS011;44880;52.814;18.270;2022-09-20T15:38:33;15.90;;;5.10;;
59093;SDS011;44880;52.814;18.270;2022-09-20T15:41:05;11.30;;;3.90;;
59093;SDS011;44880;52.814;18.270;2022-09-20T15:43:42;11.10;;;4.80;;
59093;SDS011;44880;52.814;18.270;2022-09-20T15:46:20;7.40;;;2.80;;
59093;SDS011;44880;52.814;18.270;2022-09-20T15:48:55;7.00;;;2.90;;
59093;SDS011;44880;52.814;18.270;2022-09-20T15:51:27;6.80;;;2.00;;
59093;SDS011;44880;52.814;18.270;2022-09-20T15:54:17;6.30;;;1.80;;
59093;SDS011;44880;52.814;18.270;2022-09-20T15:56:49;6.00;;;1.90;;
59093;SDS011;44880;52.814;18.270;2022-09-20T16:02:29;4.50;;;1.20;;
59093;SDS011;44880;52.814;18.270;2022-09-20T16:05:05;5.00;;;1.50;;
59093;SDS011;44880;52.814;18.270;2022-09-20T16:07:50;5.30;;;1.40;;
59093;SDS011;44880;52.814;18.270;2022-09-20T16:10:21;6.10;;;1.90;;
59093;SDS011;44880;52.814;18.270;2022-09-20T16:12:58;7.10;;;2.70;;
59093;SDS011;44880;52.814;18.270;2022-09-20T16:15:42;7.30;;;2.90;;
59093;SDS011;44880;52.814;18.270;2022-09-20T16:18:24;5.70;;;1.90;;
59093;SDS011;44880;52.814;18.270;2022-09-20T16:21:14;5.60;;;1.90;;
59093;SDS011;44880;52.814;18.270;2022-09-20T16:23:54;6.30;;;1.60;;
59093;SDS011;44880;52.814;18.270;2022-09-20T16:26:38;6.00;;;1.90;;
59093;SDS011;44880;52.814;18.270;2022-09-20T16:29:15;6.60;;;1.90;;
59093;SDS011;44880;52.814;18.270;2022-09-20T16:31:51;7.40;;;2.20;;
59093;SDS011;44880;52.814;18.270;2022-09-20T16:37:38;25.60;;;12.20;;
59093;SDS011;44880;52.814;18.270;2022-09-20T16:40:34;21.90;;;11.60;;
59093;SDS011;44880;52.814;18.270;2022-09-20T16:43:20;17.40;;;10.40;;
59093;SDS011;44880;52.814;18.270;2022-09-20T16:46:05;14.40;;;7.50;;
59093;SDS011;44880;52.814;18.270;2022-09-20T16:48:42;16.70;;;9.30;;
59093;SDS011;44880;52.814;18.270;2022-09-20T16:51:23;10.30;;;5.30;;
59093;SDS011;44880;52.814;18.270;2022-09-20T16:54:05;12.00;;;5.30;;
59093;SDS011;44880;52.814;18.270;2022-09-20T16:56:48;14.90;;;8.70;;
59093;SDS011;44880;52.814;18.270;2022-09-20T16:59:30;16.10;;;9.20;;
59093;SDS011;44880;52.814;18.270;2022-09-20T17:02:07;15.00;;;6.80;;
59093;SDS011;44880;52.814;18.270;2022-09-20T17:04:51;10.60;;;4.40;;
59093;SDS011;44880;52.814;18.270;2022-09-20T17:07:30;11.50;;;3.80;;
59093;SDS011;44880;52.814;18.270;2022-09-20T17:10:07;9.20;;;4.60;;
59093;SDS011;44880;52.814;18.270;2022-09-20T17:12:48;11.50;;;3.80;;
59093;SDS011;44880;52.814;18.270;2022-09-20T17:15:25;11.50;;;4.30;;
59093;SDS011;44880;52.814;18.270;2022-09-20T17:18:03;11.30;;;3.80;;
59093;SDS011;44880;52.814;18.270;2022-09-20T17:20:37;12.50;;;5.40;;
59093;SDS011;44880;52.814;18.270;2022-09-20T17:23:10;15.00;;;5.50;;
59093;SDS011;44880;52.814;18.270;2022-09-20T17:25:42;10.00;;;3.90;;
59093;SDS011;44880;52.814;18.270;2022-09-20T17:28:16;9.50;;;3.60;;
59093;SDS011;44880;52.814;18.270;2022-09-20T17:30:49;11.30;;;4.30;;
59093;SDS011;44880;52.814;18.270;2022-09-20T17:33:24;12.30;;;4.90;;
59093;SDS011;44880;52.814;18.270;2022-09-20T17:36:01;22.80;;;9.30;;
59093;SDS011;44880;52.814;18.270;2022-09-20T17:38:43;23.00;;;8.10;;
59093;SDS011;44880;52.814;18.270;2022-09-20T17:41:18;17.90;;;7.30;;
59093;SDS011;44880;52.814;18.270;2022-09-20T17:43:58;18.30;;;6.90;;